createdAt,value
2022-08-28T00:00:13.520Z,17.90
2022-08-28T00:02:16.119Z,17.90
2022-08-28T00:04:18.977Z,17.90
2022-08-28T00:06:21.957Z,17.80
2022-08-28T00:08:24.615Z,17.80
2022-08-28T00:10:28.154Z,17.90
2022-08-28T00:12:31.184Z,17.80
2022-08-28T00:14:34.294Z,17.80
2022-08-28T00:16:37.048Z,17.80
2022-08-28T00:18:40.038Z,17.70
2022-08-28T00:20:42.674Z,17.70
2022-08-28T00:22:45.880Z,17.80
2022-08-28T00:24:49.411Z,17.70
2022-08-28T00:27:10.141Z,17.70
2022-08-28T00:29:13.102Z,17.70
2022-08-28T00:33:32.530Z,17.60
2022-08-28T00:35:35.822Z,17.70
2022-08-28T00:37:39.451Z,17.70
2022-08-28T00:39:41.985Z,17.60
2022-08-28T00:41:44.545Z,17.60
2022-08-28T00:43:48.821Z,17.70
2022-08-28T00:45:51.515Z,17.70
2022-08-28T00:47:54.178Z,17.60
2022-08-28T00:49:56.877Z,17.70
2022-08-28T00:52:08.382Z,17.70
2022-08-28T00:54:12.985Z,17.70
2022-08-28T00:56:16.718Z,17.70
2022-08-28T00:58:20.041Z,17.60
2022-08-28T01:00:24.465Z,17.60
2022-08-28T01:02:27.556Z,17.50
2022-08-28T01:04:31.701Z,17.60
2022-08-28T01:06:36.054Z,17.50
2022-08-28T01:08:40.505Z,17.60
2022-08-28T01:10:45.343Z,17.50
2022-08-28T01:12:49.441Z,17.60
2022-08-28T01:14:54.041Z,17.60
2022-08-28T01:16:57.187Z,17.60
2022-08-28T01:19:00.254Z,17.50
2022-08-28T01:21:05.997Z,17.50
2022-08-28T01:23:10.361Z,17.40
2022-08-28T01:25:14.574Z,17.40
2022-08-28T01:27:17.260Z,17.30
2022-08-28T01:29:20.362Z,17.20
2022-08-28T01:31:24.510Z,17.10
2022-08-28T01:33:28.384Z,17.10
2022-08-28T01:35:32.777Z,17.10
2022-08-28T01:37:35.766Z,17.00
2022-08-28T01:39:38.425Z,17.00
2022-08-28T01:41:41.650Z,17.10
2022-08-28T01:43:44.573Z,17.00
2022-08-28T01:45:48.750Z,16.90
2022-08-28T01:47:51.472Z,16.80
2022-08-28T01:49:54.110Z,16.80
2022-08-28T01:51:58.010Z,16.70
2022-08-28T01:54:00.709Z,16.70
2022-08-28T01:56:07.421Z,16.70
2022-08-28T01:58:10.804Z,16.70
2022-08-28T02:00:14.793Z,16.70
2022-08-28T02:02:17.463Z,16.70
2022-08-28T02:04:20.266Z,16.60
2022-08-28T02:06:25.586Z,16.50
2022-08-28T02:08:28.284Z,16.50
2022-08-28T02:10:32.383Z,16.50
2022-08-28T02:12:35.341Z,16.50
2022-08-28T02:14:38.318Z,16.50
2022-08-28T02:16:41.017Z,16.50
2022-08-28T02:18:43.619Z,16.50
2022-08-28T02:20:46.257Z,16.50
2022-08-28T02:22:48.904Z,16.50
2022-08-28T02:24:51.610Z,16.50
2022-08-28T02:26:54.310Z,16.50
2022-08-28T02:28:58.085Z,16.50
2022-08-28T02:31:01.120Z,16.50
2022-08-28T02:33:04.210Z,16.50
2022-08-28T02:37:23.975Z,16.50
2022-08-28T02:39:26.514Z,16.50
2022-08-28T02:41:29.209Z,16.50
2022-08-28T02:43:32.046Z,16.50
2022-08-28T02:45:34.756Z,16.50
2022-08-28T02:47:37.421Z,16.50
2022-08-28T02:49:40.118Z,16.40
2022-08-28T02:51:42.773Z,16.40
2022-08-28T02:53:45.529Z,16.40
2022-08-28T02:55:48.114Z,16.30
2022-08-28T02:57:50.908Z,16.30
2022-08-28T02:59:53.525Z,16.20
2022-08-28T03:01:56.185Z,16.20
2022-08-28T03:03:58.729Z,16.20
2022-08-28T03:06:01.989Z,16.10
2022-08-28T03:08:04.939Z,16.10
2022-08-28T03:10:09.098Z,16.10
2022-08-28T03:12:12.665Z,16.10
2022-08-28T03:14:15.294Z,16.00
2022-08-28T03:16:18.361Z,16.00
2022-08-28T03:18:21.030Z,16.00
2022-08-28T03:20:23.610Z,16.00
2022-08-28T03:22:45.907Z,16.00
2022-08-28T03:24:48.610Z,15.90
2022-08-28T03:26:51.277Z,15.90
2022-08-28T03:28:55.368Z,15.90
2022-08-28T03:30:59.584Z,15.90
2022-08-28T03:33:02.697Z,15.80
2022-08-28T03:35:06.561Z,15.80
2022-08-28T03:37:09.517Z,15.80
2022-08-28T03:39:25.934Z,15.80
2022-08-28T03:41:30.897Z,15.80
2022-08-28T03:43:33.541Z,15.70
2022-08-28T03:45:36.263Z,15.70
2022-08-28T03:47:39.737Z,15.60
2022-08-28T03:49:44.105Z,15.50
2022-08-28T03:51:46.768Z,15.40
2022-08-28T03:53:49.756Z,15.40
2022-08-28T03:55:52.608Z,15.30
2022-08-28T03:57:55.302Z,15.30
2022-08-28T03:59:57.986Z,15.30
2022-08-28T04:02:00.695Z,15.30
2022-08-28T04:04:04.041Z,15.30
2022-08-28T04:06:07.335Z,15.30
2022-08-28T04:08:12.017Z,15.20
2022-08-28T04:10:15.192Z,15.20
2022-08-28T04:12:18.077Z,15.20
2022-08-28T04:14:20.748Z,15.10
2022-08-28T04:16:23.947Z,15.10
2022-08-28T04:18:27.318Z,15.10
2022-08-28T04:20:30.042Z,15.00
2022-08-28T04:22:32.849Z,15.00
2022-08-28T04:24:36.370Z,15.00
2022-08-28T04:26:39.450Z,15.00
2022-08-28T04:28:42.577Z,15.00
2022-08-28T04:30:45.745Z,15.00
2022-08-28T04:32:48.315Z,15.00
2022-08-28T04:34:50.901Z,14.90
2022-08-28T04:36:54.133Z,14.80
2022-08-28T04:38:57.317Z,14.90
2022-08-28T04:41:02.014Z,14.90
2022-08-28T04:43:04.634Z,14.80
2022-08-28T04:45:07.818Z,14.80
2022-08-28T04:47:10.668Z,14.80
2022-08-28T04:49:14.711Z,14.80
2022-08-28T04:51:17.365Z,14.90
2022-08-28T04:53:20.379Z,14.90
2022-08-28T04:55:24.398Z,14.90
2022-08-28T04:57:27.583Z,14.90
2022-08-28T04:59:30.258Z,14.90
2022-08-28T05:01:33.499Z,14.90
2022-08-28T05:03:36.018Z,14.90
2022-08-28T05:05:41.578Z,15.00
2022-08-28T05:07:45.026Z,15.00
2022-08-28T05:09:47.915Z,14.90
2022-08-28T05:11:52.600Z,14.90
2022-08-28T05:13:55.624Z,14.90
2022-08-28T05:15:58.193Z,14.90
2022-08-28T05:18:00.837Z,14.90
2022-08-28T05:20:04.118Z,14.90
2022-08-28T05:22:08.746Z,14.90
2022-08-28T05:24:13.310Z,14.90
2022-08-28T05:26:17.114Z,14.90
2022-08-28T05:28:19.718Z,15.00
2022-08-28T05:30:22.569Z,15.00
2022-08-28T05:32:25.239Z,15.00
2022-08-28T05:34:27.945Z,15.10
2022-08-28T05:36:32.538Z,15.10
2022-08-28T05:38:35.760Z,15.20
2022-08-28T05:40:42.134Z,15.20
2022-08-28T05:42:44.842Z,15.20
2022-08-28T05:44:47.419Z,15.30
2022-08-28T05:46:51.934Z,15.30
2022-08-28T05:48:54.894Z,15.30
2022-08-28T05:50:57.860Z,15.40
2022-08-28T05:53:00.876Z,15.50
2022-08-28T05:55:04.708Z,15.50
2022-08-28T05:57:07.400Z,15.50
2022-08-28T05:59:10.387Z,15.50
2022-08-28T06:01:14.803Z,15.50
2022-08-28T06:03:17.360Z,15.60
2022-08-28T06:05:20.058Z,15.60
2022-08-28T06:07:22.598Z,15.60
2022-08-28T06:09:29.418Z,15.60
2022-08-28T06:11:31.214Z,15.60
2022-08-28T06:13:37.921Z,15.70
2022-08-28T06:15:43.316Z,15.60
2022-08-28T06:17:48.506Z,15.70
2022-08-28T06:19:52.082Z,15.70
2022-08-28T06:24:14.815Z,15.90
2022-08-28T06:26:18.408Z,15.90
2022-08-28T06:28:23.773Z,15.90
2022-08-28T06:30:27.790Z,16.00
2022-08-28T06:32:33.351Z,16.10
2022-08-28T06:34:37.313Z,16.10
2022-08-28T06:36:41.775Z,16.10
2022-08-28T06:38:46.425Z,16.10
2022-08-28T06:40:52.067Z,16.20
2022-08-28T06:42:55.377Z,16.20
2022-08-28T06:44:59.408Z,16.10
2022-08-28T06:47:03.260Z,16.20
2022-08-28T06:49:08.348Z,16.20
2022-08-28T06:51:13.095Z,16.20
2022-08-28T06:53:18.718Z,16.30
2022-08-28T06:55:22.351Z,16.40
2022-08-28T06:57:26.037Z,16.40
2022-08-28T06:59:29.111Z,16.40
2022-08-28T07:01:34.365Z,16.30
2022-08-28T07:03:37.272Z,16.40
2022-08-28T07:05:42.362Z,16.50
2022-08-28T07:07:45.174Z,16.50
2022-08-28T07:12:04.704Z,16.60
2022-08-28T07:14:10.401Z,16.60
2022-08-28T07:16:16.566Z,16.60
2022-08-28T07:18:19.639Z,16.60
2022-08-28T07:20:23.436Z,16.70
2022-08-28T07:22:26.456Z,16.80
2022-08-28T07:24:29.172Z,16.70
2022-08-28T07:26:32.017Z,16.80
2022-08-28T07:28:37.094Z,16.80
2022-08-28T07:30:39.687Z,16.80
2022-08-28T07:32:42.864Z,16.80
2022-08-28T07:34:46.352Z,16.80
2022-08-28T07:36:51.279Z,16.70
2022-08-28T07:38:54.933Z,16.70
2022-08-28T07:40:57.766Z,16.70
2022-08-28T07:43:18.063Z,16.70
2022-08-28T07:45:20.734Z,16.70
2022-08-28T07:47:25.210Z,16.80
2022-08-28T07:49:27.799Z,16.90
2022-08-28T07:51:30.359Z,16.90
2022-08-28T07:53:36.339Z,17.10
2022-08-28T07:55:37.356Z,17.20
2022-08-28T07:57:40.132Z,16.80
2022-08-28T07:59:42.891Z,17.50
2022-08-28T08:01:46.375Z,17.50
2022-08-28T08:03:50.875Z,17.60
2022-08-28T08:05:55.794Z,17.70
2022-08-28T08:07:58.461Z,17.90
2022-08-28T08:10:01.276Z,18.20
2022-08-28T08:14:21.840Z,18.30
2022-08-28T08:16:25.709Z,18.30
2022-08-28T08:18:28.450Z,18.30
2022-08-28T08:20:31.158Z,18.20
2022-08-28T08:22:34.194Z,18.00
2022-08-28T08:24:36.867Z,18.00
2022-08-28T08:28:55.113Z,18.00
2022-08-28T08:31:04.726Z,18.10
2022-08-28T08:33:07.350Z,18.20
2022-08-28T08:35:11.898Z,18.20
2022-08-28T08:37:14.986Z,18.20
2022-08-28T08:39:17.590Z,18.30
2022-08-28T08:41:22.683Z,18.30
2022-08-28T08:43:26.465Z,18.30
2022-08-28T08:45:30.466Z,18.50
2022-08-28T08:47:35.199Z,18.70
2022-08-28T08:49:39.077Z,18.70
2022-08-28T08:51:43.117Z,18.70
2022-08-28T08:53:47.834Z,18.80
2022-08-28T08:55:51.637Z,18.90
2022-08-28T08:57:56.606Z,18.80
2022-08-28T08:59:59.496Z,18.90
2022-08-28T09:02:04.629Z,18.90
2022-08-28T09:04:09.857Z,19.00
2022-08-28T09:06:17.766Z,19.00
2022-08-28T09:08:27.260Z,18.90
2022-08-28T09:10:32.107Z,18.90
2022-08-28T09:12:37.384Z,19.00
2022-08-28T09:14:42.061Z,18.90
2022-08-28T09:16:45.477Z,19.00
2022-08-28T09:18:48.464Z,18.90
2022-08-28T09:20:53.133Z,18.90
2022-08-28T09:22:56.430Z,19.00
2022-08-28T09:24:59.274Z,19.00
2022-08-28T09:27:03.607Z,19.10
2022-08-28T09:29:07.743Z,19.30
2022-08-28T09:31:12.287Z,19.30
2022-08-28T09:33:15.237Z,19.30
2022-08-28T09:35:20.418Z,19.20
2022-08-28T09:37:26.005Z,19.20
2022-08-28T09:39:30.070Z,19.00
2022-08-28T09:41:51.071Z,19.00
2022-08-28T09:43:54.191Z,19.10
2022-08-28T09:45:59.391Z,19.60
2022-08-28T09:48:04.872Z,20.00
2022-08-28T09:50:19.077Z,20.40
2022-08-28T09:52:25.381Z,20.50
2022-08-28T09:54:30.709Z,20.80
2022-08-28T09:56:34.993Z,20.90
2022-08-28T09:58:39.666Z,20.90
2022-08-28T10:00:44.279Z,20.90
2022-08-28T10:02:48.810Z,21.10
2022-08-28T10:05:02.845Z,21.10
2022-08-28T10:07:07.309Z,21.10
2022-08-28T10:09:13.250Z,21.00
2022-08-28T10:11:18.217Z,20.90
2022-08-28T10:13:23.373Z,20.80
2022-08-28T10:15:27.926Z,20.70
2022-08-28T10:17:32.602Z,20.60
2022-08-28T10:19:38.545Z,20.60
2022-08-28T10:21:43.093Z,20.90
2022-08-28T10:23:49.708Z,21.10
2022-08-28T10:25:54.397Z,21.30
2022-08-28T10:28:07.241Z,21.40
2022-08-28T10:30:13.434Z,21.60
2022-08-28T10:32:23.242Z,21.80
2022-08-28T10:34:30.400Z,21.80
2022-08-28T10:36:35.132Z,21.80
2022-08-28T10:38:39.734Z,21.90
2022-08-28T10:40:44.318Z,22.00
2022-08-28T10:42:49.283Z,22.10
2022-08-28T10:44:54.039Z,22.30
2022-08-28T10:46:58.150Z,22.40
2022-08-28T10:49:02.518Z,22.60
2022-08-28T10:51:10.035Z,22.70
2022-08-28T10:53:14.115Z,22.90
2022-08-28T10:57:39.552Z,23.00
2022-08-28T10:59:42.308Z,23.10
2022-08-28T11:01:45.590Z,23.10
2022-08-28T11:03:49.269Z,23.00
2022-08-28T11:05:56.872Z,23.00
2022-08-28T11:08:03.494Z,23.20
2022-08-28T11:10:38.185Z,23.40
2022-08-28T11:14:58.031Z,23.10
2022-08-28T11:17:02.418Z,22.80
2022-08-28T11:19:27.103Z,22.50
2022-08-28T11:23:51.314Z,22.50
2022-08-28T11:25:57.876Z,22.50
2022-08-28T11:28:17.040Z,22.70
2022-08-28T11:30:32.089Z,23.00
2022-08-28T11:32:41.497Z,23.10
2022-08-28T11:35:00.014Z,23.10
2022-08-28T11:37:02.940Z,23.10
2022-08-28T11:39:08.679Z,23.20
2022-08-28T11:41:14.035Z,23.20
2022-08-28T11:43:36.249Z,23.30
2022-08-28T11:45:58.694Z,23.40
2022-08-28T11:48:01.455Z,23.40
2022-08-28T11:50:07.070Z,23.50
2022-08-28T11:52:12.794Z,23.50
2022-08-28T11:54:20.638Z,23.40
2022-08-28T11:56:45.212Z,23.30
2022-08-28T11:58:49.637Z,23.00
2022-08-28T12:00:54.153Z,22.70
2022-08-28T12:03:00.984Z,22.70
2022-08-28T12:05:04.313Z,22.60
2022-08-28T12:07:39.144Z,22.70
2022-08-28T12:09:43.508Z,22.80
2022-08-28T12:11:53.761Z,22.90
2022-08-28T12:13:56.957Z,23.00
2022-08-28T12:16:03.887Z,23.10
2022-08-28T12:18:08.382Z,23.30
2022-08-28T12:20:13.846Z,23.50
2022-08-28T12:22:18.026Z,23.50
2022-08-28T12:24:21.726Z,23.50
2022-08-28T12:28:42.281Z,23.40
2022-08-28T12:30:46.978Z,23.40
2022-08-28T12:32:51.487Z,23.50
2022-08-28T12:35:05.962Z,23.50
2022-08-28T12:37:11.102Z,23.80
2022-08-28T12:39:17.522Z,23.80
2022-08-28T12:41:21.058Z,23.70
2022-08-28T12:43:29.529Z,23.60
2022-08-28T12:45:33.913Z,23.30
2022-08-28T12:47:37.296Z,23.30
2022-08-28T12:49:40.406Z,23.20
2022-08-28T12:51:43.146Z,23.40
2022-08-28T12:53:46.918Z,23.40
2022-08-28T12:55:50.891Z,23.40
2022-08-28T12:57:53.685Z,23.50
2022-08-28T12:59:58.157Z,23.60
2022-08-28T13:02:01.964Z,23.60
2022-08-28T13:04:06.834Z,23.60
2022-08-28T13:06:10.593Z,23.50
2022-08-28T13:08:13.242Z,23.70
2022-08-28T13:10:19.869Z,23.80
2022-08-28T13:14:41.342Z,23.90
2022-08-28T13:16:45.851Z,24.00
2022-08-28T13:18:50.740Z,23.90
2022-08-28T13:20:55.162Z,23.80
2022-08-28T13:22:58.229Z,23.60
2022-08-28T13:25:01.918Z,23.60
2022-08-28T13:27:07.025Z,23.60
2022-08-28T13:29:16.794Z,23.70
2022-08-28T13:31:22.577Z,23.80
2022-08-28T13:33:26.586Z,23.90
2022-08-28T13:35:34.274Z,23.90
2022-08-28T13:37:41.425Z,24.00
2022-08-28T13:39:44.213Z,24.00
2022-08-28T13:41:48.825Z,23.90
2022-08-28T13:43:51.478Z,23.90
2022-08-28T13:45:54.205Z,23.60
2022-08-28T13:47:56.962Z,23.70
2022-08-28T13:49:59.654Z,23.70
2022-08-28T13:52:04.257Z,23.90
2022-08-28T13:54:07.175Z,24.00
2022-08-28T13:56:10.353Z,24.10
2022-08-28T13:58:13.616Z,24.10
2022-08-28T14:00:16.612Z,24.20
2022-08-28T14:02:37.872Z,24.20
2022-08-28T14:04:40.465Z,24.10
2022-08-28T14:06:43.502Z,24.20
2022-08-28T14:08:46.549Z,24.00
2022-08-28T14:10:49.198Z,23.90
2022-08-28T14:12:52.400Z,24.00
2022-08-28T14:14:55.034Z,24.20
2022-08-28T14:17:00.783Z,24.00
2022-08-28T14:19:05.249Z,24.10
2022-08-28T14:21:08.124Z,24.20
2022-08-28T14:23:11.446Z,24.10
2022-08-28T14:25:15.089Z,24.20
2022-08-28T14:27:18.079Z,24.30
2022-08-28T14:29:20.862Z,24.30
2022-08-28T14:31:26.347Z,24.50
2022-08-28T14:33:29.875Z,24.50
2022-08-28T14:35:39.051Z,24.40
2022-08-28T14:37:42.597Z,24.30
2022-08-28T14:42:06.642Z,24.20
2022-08-28T14:44:12.621Z,24.30
2022-08-28T14:46:17.157Z,24.30
2022-08-28T14:48:20.703Z,24.40
2022-08-28T14:50:24.945Z,24.30
2022-08-28T14:52:32.798Z,24.30
2022-08-28T14:54:37.849Z,24.30
2022-08-28T14:56:42.909Z,24.30
2022-08-28T14:58:46.794Z,24.50
2022-08-28T15:00:51.228Z,24.40
2022-08-28T15:02:59.700Z,24.50
2022-08-28T15:04:59.468Z,24.60
2022-08-28T15:07:05.585Z,24.60
2022-08-28T15:09:09.747Z,24.50
2022-08-28T15:11:18.468Z,24.40
2022-08-28T15:13:21.868Z,24.50
2022-08-28T15:15:25.486Z,24.50
2022-08-28T15:17:33.699Z,24.60
2022-08-28T15:19:34.329Z,24.70
2022-08-28T15:21:38.529Z,24.50
2022-08-28T15:23:43.064Z,24.40
2022-08-28T15:25:46.759Z,24.20
2022-08-28T15:27:50.726Z,24.10
2022-08-28T15:29:54.046Z,24.20
2022-08-28T15:31:58.550Z,24.10
2022-08-28T15:34:04.118Z,24.00
2022-08-28T15:36:10.054Z,24.20
2022-08-28T15:38:13.519Z,24.40
2022-08-28T15:40:34.951Z,24.60
2022-08-28T15:42:38.634Z,24.60
2022-08-28T15:44:41.867Z,24.50
2022-08-28T15:46:47.876Z,24.60
2022-08-28T15:48:51.149Z,24.70
2022-08-28T15:50:58.075Z,24.80
2022-08-28T15:53:03.182Z,25.00
2022-08-28T15:55:06.613Z,24.70
2022-08-28T15:57:09.930Z,24.90
2022-08-28T15:59:13.667Z,24.80
2022-08-28T16:01:17.061Z,24.80
2022-08-28T16:03:21.003Z,24.90
2022-08-28T16:05:26.971Z,24.90
2022-08-28T16:07:31.730Z,25.00
2022-08-28T16:09:35.352Z,24.90
2022-08-28T16:11:39.750Z,24.70
2022-08-28T16:16:00.203Z,24.70
2022-08-28T16:18:05.606Z,24.50
2022-08-28T16:20:11.092Z,24.70
2022-08-28T16:22:16.014Z,24.90
2022-08-28T16:24:19.817Z,24.80
2022-08-28T16:26:23.712Z,24.70
2022-08-28T16:28:27.349Z,24.80
2022-08-28T16:30:31.045Z,24.80
2022-08-28T16:32:34.034Z,24.60
2022-08-28T16:34:39.453Z,24.50
2022-08-28T16:36:43.097Z,24.60
2022-08-28T16:38:48.368Z,24.20
2022-08-28T16:40:53.578Z,24.10
2022-08-28T16:42:56.960Z,24.00
2022-08-28T16:45:00.520Z,23.90
2022-08-28T16:47:04.315Z,24.00
2022-08-28T16:49:07.207Z,23.80
2022-08-28T16:51:11.534Z,24.00
2022-08-28T16:53:15.499Z,23.70
2022-08-28T16:55:20.946Z,23.90
2022-08-28T16:57:24.105Z,24.00
2022-08-28T16:59:27.701Z,24.10
2022-08-28T17:01:31.747Z,24.20
2022-08-28T17:03:35.292Z,24.30
2022-08-28T17:05:40.127Z,24.40
2022-08-28T17:07:45.563Z,24.30
2022-08-28T17:09:49.182Z,24.40
2022-08-28T17:11:52.915Z,24.40
2022-08-28T17:13:56.313Z,24.10
2022-08-28T17:15:59.940Z,23.90
2022-08-28T17:18:04.016Z,23.70
2022-08-28T17:20:12.691Z,23.60
2022-08-28T17:22:31.627Z,23.50
2022-08-28T17:24:41.392Z,23.30
2022-08-28T17:26:45.246Z,23.00
2022-08-28T17:28:49.071Z,23.00
2022-08-28T17:30:51.733Z,22.90
2022-08-28T17:32:54.379Z,22.90
2022-08-28T17:34:57.585Z,22.70
2022-08-28T17:37:00.946Z,22.70
2022-08-28T17:39:05.558Z,22.80
2022-08-28T17:41:08.292Z,22.70
2022-08-28T17:43:11.678Z,22.60
2022-08-28T17:45:14.517Z,22.60
2022-08-28T17:47:17.637Z,22.50
2022-08-28T17:49:22.258Z,22.30
2022-08-28T17:51:42.976Z,22.30
2022-08-28T17:53:29.448Z,22.20
2022-08-28T17:55:32.431Z,22.10
2022-08-28T17:57:34.982Z,22.00
2022-08-28T17:59:37.683Z,21.90
2022-08-28T18:01:41.770Z,21.70
2022-08-28T18:03:53.066Z,21.60
2022-08-28T18:08:04.558Z,21.30
2022-08-28T18:10:08.909Z,21.20
2022-08-28T18:12:12.487Z,21.00
2022-08-28T18:14:15.458Z,21.00
2022-08-28T18:16:21.595Z,20.80
2022-08-28T18:18:32.996Z,20.70
2022-08-28T18:20:35.595Z,20.60
2022-08-28T18:22:42.046Z,20.60
2022-08-28T18:24:46.689Z,20.40
2022-08-28T18:26:49.525Z,20.30
2022-08-28T18:28:52.111Z,20.10
2022-08-28T18:30:54.890Z,20.00
2022-08-28T18:32:58.504Z,20.00
2022-08-28T18:35:01.149Z,19.80
2022-08-28T18:37:04.141Z,19.80
2022-08-28T18:39:06.689Z,19.80
2022-08-28T18:41:10.000Z,19.70
2022-08-28T18:43:13.142Z,19.70
2022-08-28T18:45:15.841Z,19.60
2022-08-28T18:47:20.340Z,19.40
2022-08-28T18:49:23.000Z,19.30
2022-08-28T18:51:25.703Z,19.20
2022-08-28T18:53:28.770Z,19.10
2022-08-28T18:55:32.271Z,19.10
2022-08-28T18:57:35.102Z,19.00
2022-08-28T18:59:38.128Z,19.00
2022-08-28T19:01:42.699Z,18.90
2022-08-28T19:03:45.817Z,18.90
2022-08-28T19:05:48.509Z,18.80
2022-08-28T19:07:51.302Z,18.60
2022-08-28T19:09:55.666Z,18.60
2022-08-28T19:11:58.536Z,18.60
2022-08-28T19:14:03.929Z,18.50
2022-08-28T19:16:06.706Z,18.50
2022-08-28T19:18:09.374Z,18.50
2022-08-28T19:20:13.521Z,18.40
2022-08-28T19:22:16.450Z,18.40
2022-08-28T19:24:21.049Z,18.30
2022-08-28T19:26:23.908Z,18.30
2022-08-28T19:28:26.729Z,18.20
2022-08-28T19:30:30.790Z,18.10
2022-08-28T19:32:33.362Z,18.00
2022-08-28T19:34:36.089Z,18.10
2022-08-28T19:36:39.056Z,18.00
2022-08-28T19:38:41.920Z,18.00
2022-08-28T19:40:44.875Z,17.90
2022-08-28T19:42:50.087Z,17.90
2022-08-28T19:44:59.945Z,17.90
2022-08-28T19:46:57.830Z,17.90
2022-08-28T19:49:02.665Z,17.90
2022-08-28T19:51:06.720Z,17.80
2022-08-28T19:53:11.369Z,17.80
2022-08-28T19:55:17.046Z,17.80
2022-08-28T19:57:20.283Z,17.70
2022-08-28T19:59:27.131Z,17.80
2022-08-28T20:01:29.223Z,17.70
2022-08-28T20:03:32.248Z,17.70
2022-08-28T20:05:34.933Z,17.60
2022-08-28T20:07:39.414Z,17.60
2022-08-28T20:09:42.065Z,17.50
2022-08-28T20:11:46.251Z,17.50
2022-08-28T20:13:48.811Z,17.50
2022-08-28T20:15:52.513Z,17.40
2022-08-28T20:17:55.239Z,17.50
2022-08-28T20:20:02.369Z,17.40
2022-08-28T20:22:03.186Z,17.30
2022-08-28T20:24:07.185Z,17.20
2022-08-28T20:26:10.331Z,17.20
2022-08-28T20:28:13.399Z,17.10
2022-08-28T20:30:16.847Z,17.10
2022-08-28T20:32:19.551Z,17.20
2022-08-28T20:34:22.222Z,17.10
2022-08-28T20:36:25.844Z,17.10
2022-08-28T20:38:28.724Z,17.10
2022-08-28T20:40:31.532Z,17.00
2022-08-28T20:42:36.853Z,17.10
2022-08-28T20:44:39.913Z,17.10
2022-08-28T20:46:42.929Z,17.00
2022-08-28T20:48:45.516Z,17.00
2022-08-28T20:50:48.551Z,17.00
2022-08-28T20:52:53.953Z,16.90
2022-08-28T20:54:57.415Z,16.90
2022-08-28T20:59:16.306Z,16.90
2022-08-28T21:01:18.996Z,16.90
2022-08-28T21:03:21.682Z,16.90
2022-08-28T21:05:26.387Z,17.00
2022-08-28T21:07:29.275Z,17.00
2022-08-28T21:09:53.703Z,17.10
2022-08-28T21:11:36.427Z,17.00
2022-08-28T21:13:39.129Z,17.10
2022-08-28T21:15:41.835Z,17.10
2022-08-28T21:17:44.487Z,17.20
2022-08-28T21:19:48.953Z,17.20
2022-08-28T21:21:51.885Z,17.20
2022-08-28T21:23:55.518Z,17.20
2022-08-28T21:25:58.108Z,17.10
2022-08-28T21:28:04.445Z,17.10
2022-08-28T21:30:06.689Z,17.10
2022-08-28T21:32:09.304Z,17.10
2022-08-28T21:34:12.038Z,17.00
2022-08-28T21:36:16.550Z,16.90
2022-08-28T21:38:19.199Z,16.90
2022-08-28T21:40:21.902Z,16.90
2022-08-28T21:42:24.448Z,16.90
2022-08-28T21:44:26.998Z,16.90
2022-08-28T21:46:29.791Z,16.90
2022-08-28T21:48:34.806Z,16.90
2022-08-28T21:50:37.481Z,16.90
2022-08-28T21:52:40.162Z,16.90
2022-08-28T21:54:42.785Z,16.80
2022-08-28T21:56:45.478Z,16.70
2022-08-28T21:58:48.110Z,16.70
2022-08-28T22:00:52.284Z,16.70
2022-08-28T22:02:54.983Z,16.70
2022-08-28T22:04:57.685Z,16.60
2022-08-28T22:07:00.351Z,16.50
2022-08-28T22:09:03.705Z,16.40
2022-08-28T22:11:06.749Z,16.40
2022-08-28T22:13:10.282Z,16.30
2022-08-28T22:15:12.925Z,16.30
2022-08-28T22:17:15.640Z,16.30
2022-08-28T22:19:18.886Z,16.20
2022-08-28T22:21:40.814Z,16.10
2022-08-28T22:23:46.152Z,16.00
2022-08-28T22:25:48.799Z,15.90
2022-08-28T22:27:51.460Z,15.70
2022-08-28T22:29:54.147Z,15.70
2022-08-28T22:31:56.722Z,15.60
2022-08-28T22:33:59.357Z,15.50
2022-08-28T22:36:01.909Z,15.50
2022-08-28T22:38:04.867Z,15.40
2022-08-28T22:40:13.227Z,15.40
2022-08-28T22:42:12.750Z,15.50
2022-08-28T22:44:15.399Z,15.40
2022-08-28T22:46:19.896Z,15.30
2022-08-28T22:48:22.670Z,15.20
2022-08-28T22:50:25.951Z,15.20
2022-08-28T22:52:28.807Z,15.00
2022-08-28T22:54:32.596Z,15.00
2022-08-28T22:56:35.620Z,14.80
2022-08-28T22:58:38.275Z,14.70
2022-08-28T23:00:41.191Z,14.50
2022-08-28T23:02:44.253Z,14.30
2022-08-28T23:04:46.969Z,14.20
2022-08-28T23:06:51.422Z,14.20
2022-08-28T23:08:54.000Z,14.20
2022-08-28T23:10:59.287Z,14.20
2022-08-28T23:13:01.097Z,14.20
2022-08-28T23:15:05.779Z,14.10
2022-08-28T23:17:08.430Z,14.20
2022-08-28T23:19:13.493Z,14.20
2022-08-28T23:21:15.573Z,14.20
2022-08-28T23:23:18.325Z,14.20
2022-08-28T23:25:22.317Z,14.20
2022-08-28T23:27:40.491Z,14.20
2022-08-28T23:29:30.227Z,14.20
2022-08-28T23:31:32.992Z,14.20
2022-08-28T23:33:35.830Z,14.00
2022-08-28T23:35:38.604Z,13.90
2022-08-28T23:37:42.958Z,13.90
2022-08-28T23:39:45.982Z,13.80
2022-08-28T23:41:52.205Z,13.80
2022-08-28T23:43:54.894Z,13.50
2022-08-28T23:45:59.535Z,13.50
2022-08-28T23:48:03.024Z,13.40
2022-08-28T23:50:09.269Z,13.40
2022-08-28T23:52:12.230Z,13.40
2022-08-28T23:54:14.862Z,13.50
2022-08-28T23:56:18.145Z,13.50
2022-08-28T23:58:22.451Z,13.50
